X  Fechar Dados meteorológicos de METAR da aviação     KDNN Dalton Municipal Airport
Temperatura
13°C Temperatura
1°C Ponto de orvalho
44% Umidade



Vento
13 KM/H
8 MPH
4 M/S
7 NÓS



160°
SSL
Condições atuais

Limpo Limpo
Pressão 1019.98 (hPa) - 30.12 (inHg)
Visibilidade 10 (milha) - 16.1 (km)
Aeroporto
Código do aeroporto KDNN

Localização: Dalton Municipal Airport
Distância: 34 (km)

Metar:
KDNN 261415Z AUTO 16007KT 10SM CLR 13/01 A3012 RMK AO2 T01300009

Hora: 02-26-2024 09:15 EST